sensor_id;sensor_type;location;lat;lon;timestamp;P1;durP1;ratioP1;P2;durP2;ratioP2
20734;SDS011;10528;52.124;5.196;2023-12-14T00:01:56;11.73;;;9.02;;
20734;SDS011;10528;52.124;5.196;2023-12-14T00:04:23;13.35;;;9.60;;
20734;SDS011;10528;52.124;5.196;2023-12-14T00:06:50;12.38;;;9.20;;
20734;SDS011;10528;52.124;5.196;2023-12-14T00:09:17;12.68;;;9.52;;
20734;SDS011;10528;52.124;5.196;2023-12-14T00:11:44;12.60;;;9.00;;
20734;SDS011;10528;52.124;5.196;2023-12-14T00:14:11;10.93;;;9.13;;
20734;SDS011;10528;52.124;5.196;2023-12-14T00:16:38;12.57;;;9.13;;
20734;SDS011;10528;52.124;5.196;2023-12-14T00:19:05;11.43;;;8.70;;
20734;SDS011;10528;52.124;5.196;2023-12-14T00:21:32;11.15;;;8.70;;
20734;SDS011;10528;52.124;5.196;2023-12-14T00:23:59;12.50;;;8.63;;
20734;SDS011;10528;52.124;5.196;2023-12-14T00:26:26;11.43;;;8.35;;
20734;SDS011;10528;52.124;5.196;2023-12-14T00:28:53;13.38;;;8.50;;
20734;SDS011;10528;52.124;5.196;2023-12-14T00:31:27;12.07;;;8.75;;
20734;SDS011;10528;52.124;5.196;2023-12-14T00:33:54;11.25;;;8.63;;
20734;SDS011;10528;52.124;5.196;2023-12-14T00:36:21;11.50;;;8.63;;
20734;SDS011;10528;52.124;5.196;2023-12-14T00:38:48;11.02;;;8.77;;
20734;SDS011;10528;52.124;5.196;2023-12-14T00:41:15;10.32;;;7.88;;
20734;SDS011;10528;52.124;5.196;2023-12-14T00:43:42;10.38;;;8.13;;
20734;SDS011;10528;52.124;5.196;2023-12-14T00:46:09;10.43;;;8.02;;
20734;SDS011;10528;52.124;5.196;2023-12-14T00:48:37;13.52;;;8.48;;
20734;SDS011;10528;52.124;5.196;2023-12-14T00:51:04;11.00;;;8.30;;
20734;SDS011;10528;52.124;5.196;2023-12-14T00:53:31;13.10;;;8.77;;
20734;SDS011;10528;52.124;5.196;2023-12-14T00:55:58;11.52;;;8.35;;
20734;SDS011;10528;52.124;5.196;2023-12-14T00:58:25;10.48;;;8.30;;
20734;SDS011;10528;52.124;5.196;2023-12-14T01:00:52;11.13;;;8.23;;
20734;SDS011;10528;52.124;5.196;2023-12-14T01:03:21;11.60;;;8.80;;
20734;SDS011;10528;52.124;5.196;2023-12-14T01:05:48;11.82;;;8.90;;
20734;SDS011;10528;52.124;5.196;2023-12-14T01:08:15;11.98;;;9.02;;
20734;SDS011;10528;52.124;5.196;2023-12-14T01:10:42;12.13;;;8.35;;
20734;SDS011;10528;52.124;5.196;2023-12-14T01:13:10;10.85;;;7.90;;
20734;SDS011;10528;52.124;5.196;2023-12-14T01:15:37;11.73;;;8.85;;
20734;SDS011;10528;52.124;5.196;2023-12-14T01:18:04;11.63;;;9.05;;
20734;SDS011;10528;52.124;5.196;2023-12-14T01:20:31;11.85;;;8.93;;
20734;SDS011;10528;52.124;5.196;2023-12-14T01:22:58;12.05;;;9.02;;
20734;SDS011;10528;52.124;5.196;2023-12-14T01:25:25;12.38;;;9.48;;
20734;SDS011;10528;52.124;5.196;2023-12-14T01:27:52;10.98;;;8.45;;
20734;SDS011;10528;52.124;5.196;2023-12-14T01:30:19;10.23;;;8.35;;
20734;SDS011;10528;52.124;5.196;2023-12-14T01:32:46;12.30;;;9.13;;
20734;SDS011;10528;52.124;5.196;2023-12-14T01:35:13;11.32;;;9.00;;
20734;SDS011;10528;52.124;5.196;2023-12-14T01:37:40;12.23;;;9.15;;
20734;SDS011;10528;52.124;5.196;2023-12-14T01:40:07;12.02;;;9.65;;
20734;SDS011;10528;52.124;5.196;2023-12-14T01:42:34;11.35;;;8.18;;
20734;SDS011;10528;52.124;5.196;2023-12-14T01:45:02;11.98;;;8.30;;
20734;SDS011;10528;52.124;5.196;2023-12-14T01:47:30;10.80;;;8.77;;
20734;SDS011;10528;52.124;5.196;2023-12-14T01:49:57;10.63;;;8.60;;
20734;SDS011;10528;52.124;5.196;2023-12-14T01:52:24;13.18;;;9.35;;
20734;SDS011;10528;52.124;5.196;2023-12-14T01:54:51;11.75;;;8.75;;
20734;SDS011;10528;52.124;5.196;2023-12-14T01:57:18;10.32;;;8.43;;
20734;SDS011;10528;52.124;5.196;2023-12-14T01:59:45;10.57;;;8.45;;
20734;SDS011;10528;52.124;5.196;2023-12-14T02:02:12;10.75;;;8.88;;
20734;SDS011;10528;52.124;5.196;2023-12-14T02:04:39;10.60;;;8.27;;
20734;SDS011;10528;52.124;5.196;2023-12-14T02:07:06;10.98;;;8.30;;
20734;SDS011;10528;52.124;5.196;2023-12-14T02:09:33;10.05;;;8.13;;
20734;SDS011;10528;52.124;5.196;2023-12-14T02:12:00;11.60;;;8.95;;
20734;SDS011;10528;52.124;5.196;2023-12-14T02:14:27;11.82;;;8.63;;
20734;SDS011;10528;52.124;5.196;2023-12-14T02:16:54;12.07;;;9.35;;
20734;SDS011;10528;52.124;5.196;2023-12-14T02:19:20;12.30;;;9.18;;
20734;SDS011;10528;52.124;5.196;2023-12-14T02:21:47;12.77;;;8.93;;
20734;SDS011;10528;52.124;5.196;2023-12-14T02:24:14;11.02;;;8.93;;
20734;SDS011;10528;52.124;5.196;2023-12-14T02:26:41;13.40;;;8.93;;
20734;SDS011;10528;52.124;5.196;2023-12-14T02:29:27;11.75;;;8.90;;
20734;SDS011;10528;52.124;5.196;2023-12-14T02:31:54;12.00;;;9.25;;
20734;SDS011;10528;52.124;5.196;2023-12-14T02:34:21;12.23;;;10.02;;
20734;SDS011;10528;52.124;5.196;2023-12-14T02:36:48;11.90;;;9.85;;
20734;SDS011;10528;52.124;5.196;2023-12-14T02:39:15;13.75;;;9.95;;
20734;SDS011;10528;52.124;5.196;2023-12-14T02:41:42;12.35;;;9.98;;
20734;SDS011;10528;52.124;5.196;2023-12-14T02:44:09;13.02;;;9.73;;
20734;SDS011;10528;52.124;5.196;2023-12-14T02:46:36;13.25;;;9.70;;
20734;SDS011;10528;52.124;5.196;2023-12-14T02:49:03;13.00;;;9.98;;
20734;SDS011;10528;52.124;5.196;2023-12-14T02:51:30;12.73;;;9.68;;
20734;SDS011;10528;52.124;5.196;2023-12-14T02:53:56;16.00;;;10.23;;
20734;SDS011;10528;52.124;5.196;2023-12-14T02:56:24;13.00;;;9.57;;
20734;SDS011;10528;52.124;5.196;2023-12-14T02:58:51;13.95;;;10.00;;
20734;SDS011;10528;52.124;5.196;2023-12-14T03:01:20;14.52;;;9.77;;
20734;SDS011;10528;52.124;5.196;2023-12-14T03:03:50;13.20;;;9.20;;
20734;SDS011;10528;52.124;5.196;2023-12-14T03:06:17;11.18;;;9.20;;
20734;SDS011;10528;52.124;5.196;2023-12-14T03:08:43;15.68;;;9.77;;
20734;SDS011;10528;52.124;5.196;2023-12-14T03:11:10;12.43;;;8.75;;
20734;SDS011;10528;52.124;5.196;2023-12-14T03:13:49;14.30;;;9.30;;
20734;SDS011;10528;52.124;5.196;2023-12-14T03:16:17;13.15;;;10.13;;
20734;SDS011;10528;52.124;5.196;2023-12-14T03:18:45;13.55;;;10.40;;
20734;SDS011;10528;52.124;5.196;2023-12-14T03:21:12;14.75;;;10.43;;
20734;SDS011;10528;52.124;5.196;2023-12-14T03:23:39;15.25;;;10.15;;
20734;SDS011;10528;52.124;5.196;2023-12-14T03:26:05;16.42;;;10.45;;
20734;SDS011;10528;52.124;5.196;2023-12-14T03:28:32;15.60;;;11.15;;
20734;SDS011;10528;52.124;5.196;2023-12-14T03:31:00;15.75;;;9.95;;
20734;SDS011;10528;52.124;5.196;2023-12-14T03:33:27;18.08;;;10.68;;
20734;SDS011;10528;52.124;5.196;2023-12-14T03:35:55;15.85;;;10.00;;
20734;SDS011;10528;52.124;5.196;2023-12-14T03:38:22;17.05;;;10.00;;
20734;SDS011;10528;52.124;5.196;2023-12-14T03:40:49;15.40;;;9.77;;
20734;SDS011;10528;52.124;5.196;2023-12-14T03:43:16;13.80;;;9.43;;
20734;SDS011;10528;52.124;5.196;2023-12-14T03:45:42;15.98;;;9.30;;
20734;SDS011;10528;52.124;5.196;2023-12-14T03:48:09;14.52;;;10.02;;
20734;SDS011;10528;52.124;5.196;2023-12-14T03:50:37;13.85;;;8.98;;
20734;SDS011;10528;52.124;5.196;2023-12-14T03:53:04;15.80;;;8.82;;
20734;SDS011;10528;52.124;5.196;2023-12-14T03:55:31;13.40;;;8.63;;
20734;SDS011;10528;52.124;5.196;2023-12-14T03:57:58;12.00;;;8.32;;
20734;SDS011;10528;52.124;5.196;2023-12-14T04:00:25;14.45;;;8.70;;
20734;SDS011;10528;52.124;5.196;2023-12-14T04:02:52;13.95;;;8.52;;
20734;SDS011;10528;52.124;5.196;2023-12-14T04:05:19;12.45;;;8.82;;
20734;SDS011;10528;52.124;5.196;2023-12-14T04:07:46;12.80;;;7.90;;
20734;SDS011;10528;52.124;5.196;2023-12-14T04:10:13;16.33;;;8.27;;
20734;SDS011;10528;52.124;5.196;2023-12-14T04:12:40;11.35;;;7.78;;
20734;SDS011;10528;52.124;5.196;2023-12-14T04:15:08;10.35;;;7.43;;
20734;SDS011;10528;52.124;5.196;2023-12-14T04:17:36;12.88;;;7.47;;
20734;SDS011;10528;52.124;5.196;2023-12-14T04:20:04;12.20;;;7.43;;
20734;SDS011;10528;52.124;5.196;2023-12-14T04:22:33;11.45;;;7.03;;
20734;SDS011;10528;52.124;5.196;2023-12-14T04:25:00;14.73;;;8.05;;
20734;SDS011;10528;52.124;5.196;2023-12-14T04:27:27;11.93;;;7.00;;
20734;SDS011;10528;52.124;5.196;2023-12-14T04:29:56;11.25;;;7.80;;
20734;SDS011;10528;52.124;5.196;2023-12-14T04:32:23;11.38;;;6.78;;
20734;SDS011;10528;52.124;5.196;2023-12-14T04:34:49;11.02;;;7.22;;
20734;SDS011;10528;52.124;5.196;2023-12-14T04:37:16;10.95;;;6.57;;
20734;SDS011;10528;52.124;5.196;2023-12-14T04:39:43;12.55;;;6.57;;
20734;SDS011;10528;52.124;5.196;2023-12-14T04:42:10;10.93;;;6.38;;
20734;SDS011;10528;52.124;5.196;2023-12-14T04:44:37;11.27;;;6.78;;
20734;SDS011;10528;52.124;5.196;2023-12-14T04:47:05;9.93;;;6.45;;
20734;SDS011;10528;52.124;5.196;2023-12-14T04:49:34;9.15;;;5.90;;
20734;SDS011;10528;52.124;5.196;2023-12-14T04:52:01;12.30;;;6.35;;
20734;SDS011;10528;52.124;5.196;2023-12-14T04:54:28;11.38;;;5.95;;
20734;SDS011;10528;52.124;5.196;2023-12-14T04:56:55;9.00;;;5.68;;
20734;SDS011;10528;52.124;5.196;2023-12-14T04:59:22;10.57;;;6.15;;
20734;SDS011;10528;52.124;5.196;2023-12-14T05:01:49;9.85;;;5.97;;
20734;SDS011;10528;52.124;5.196;2023-12-14T05:04:16;10.73;;;6.07;;
20734;SDS011;10528;52.124;5.196;2023-12-14T05:06:43;8.60;;;6.00;;
20734;SDS011;10528;52.124;5.196;2023-12-14T05:09:10;10.20;;;5.75;;
20734;SDS011;10528;52.124;5.196;2023-12-14T05:11:39;9.57;;;5.65;;
20734;SDS011;10528;52.124;5.196;2023-12-14T05:14:07;8.13;;;5.13;;
20734;SDS011;10528;52.124;5.196;2023-12-14T05:16:34;11.15;;;5.63;;
20734;SDS011;10528;52.124;5.196;2023-12-14T05:19:01;7.40;;;5.07;;
20734;SDS011;10528;52.124;5.196;2023-12-14T05:21:28;6.93;;;5.05;;
20734;SDS011;10528;52.124;5.196;2023-12-14T05:23:55;7.97;;;4.75;;
20734;SDS011;10528;52.124;5.196;2023-12-14T05:26:23;7.35;;;5.20;;
20734;SDS011;10528;52.124;5.196;2023-12-14T05:28:49;8.25;;;5.25;;
20734;SDS011;10528;52.124;5.196;2023-12-14T05:31:16;7.22;;;5.05;;
20734;SDS011;10528;52.124;5.196;2023-12-14T05:33:44;6.70;;;5.13;;
20734;SDS011;10528;52.124;5.196;2023-12-14T05:36:11;9.18;;;5.38;;
20734;SDS011;10528;52.124;5.196;2023-12-14T05:38:38;8.20;;;5.00;;
20734;SDS011;10528;52.124;5.196;2023-12-14T05:41:06;7.22;;;5.63;;
20734;SDS011;10528;52.124;5.196;2023-12-14T05:43:33;7.57;;;5.20;;
20734;SDS011;10528;52.124;5.196;2023-12-14T05:46:00;7.57;;;5.03;;
20734;SDS011;10528;52.124;5.196;2023-12-14T05:48:27;10.30;;;5.63;;
20734;SDS011;10528;52.124;5.196;2023-12-14T05:50:54;7.40;;;4.93;;
20734;SDS011;10528;52.124;5.196;2023-12-14T05:53:22;8.80;;;5.65;;
20734;SDS011;10528;52.124;5.196;2023-12-14T05:55:49;7.68;;;5.00;;
20734;SDS011;10528;52.124;5.196;2023-12-14T05:58:16;6.53;;;4.90;;
20734;SDS011;10528;52.124;5.196;2023-12-14T06:00:43;8.25;;;5.70;;
20734;SDS011;10528;52.124;5.196;2023-12-14T06:03:10;7.57;;;5.15;;
20734;SDS011;10528;52.124;5.196;2023-12-14T06:05:37;7.35;;;5.22;;
20734;SDS011;10528;52.124;5.196;2023-12-14T06:08:05;8.38;;;5.50;;
20734;SDS011;10528;52.124;5.196;2023-12-14T06:10:32;6.90;;;5.20;;
20734;SDS011;10528;52.124;5.196;2023-12-14T06:12:59;10.15;;;5.88;;
20734;SDS011;10528;52.124;5.196;2023-12-14T06:15:25;7.93;;;4.88;;
20734;SDS011;10528;52.124;5.196;2023-12-14T06:17:52;6.95;;;5.30;;
20734;SDS011;10528;52.124;5.196;2023-12-14T06:20:19;7.32;;;5.30;;
20734;SDS011;10528;52.124;5.196;2023-12-14T06:22:46;8.25;;;5.53;;
20734;SDS011;10528;52.124;5.196;2023-12-14T06:25:13;8.75;;;5.32;;
20734;SDS011;10528;52.124;5.196;2023-12-14T06:27:41;7.50;;;4.53;;
20734;SDS011;10528;52.124;5.196;2023-12-14T06:30:08;6.55;;;4.80;;
20734;SDS011;10528;52.124;5.196;2023-12-14T06:32:37;5.82;;;4.22;;
20734;SDS011;10528;52.124;5.196;2023-12-14T06:35:04;7.15;;;4.97;;
20734;SDS011;10528;52.124;5.196;2023-12-14T06:37:32;6.70;;;4.57;;
20734;SDS011;10528;52.124;5.196;2023-12-14T06:39:59;8.25;;;5.32;;
20734;SDS011;10528;52.124;5.196;2023-12-14T06:42:29;8.57;;;5.85;;
20734;SDS011;10528;52.124;5.196;2023-12-14T06:44:57;8.38;;;5.60;;
20734;SDS011;10528;52.124;5.196;2023-12-14T06:47:25;7.55;;;5.28;;
20734;SDS011;10528;52.124;5.196;2023-12-14T06:49:52;7.88;;;5.63;;
20734;SDS011;10528;52.124;5.196;2023-12-14T06:52:19;8.35;;;5.53;;
20734;SDS011;10528;52.124;5.196;2023-12-14T06:54:46;8.20;;;5.38;;
20734;SDS011;10528;52.124;5.196;2023-12-14T06:57:13;8.45;;;5.63;;
20734;SDS011;10528;52.124;5.196;2023-12-14T06:59:40;8.43;;;5.70;;
20734;SDS011;10528;52.124;5.196;2023-12-14T07:02:07;11.02;;;6.38;;
20734;SDS011;10528;52.124;5.196;2023-12-14T07:04:34;9.35;;;5.95;;
20734;SDS011;10528;52.124;5.196;2023-12-14T07:07:01;7.63;;;5.03;;
20734;SDS011;10528;52.124;5.196;2023-12-14T07:09:28;8.25;;;5.70;;
20734;SDS011;10528;52.124;5.196;2023-12-14T07:11:55;8.88;;;5.90;;
20734;SDS011;10528;52.124;5.196;2023-12-14T07:14:22;11.32;;;6.28;;
20734;SDS011;10528;52.124;5.196;2023-12-14T07:16:51;8.82;;;5.95;;
20734;SDS011;10528;52.124;5.196;2023-12-14T07:19:18;9.05;;;6.45;;
20734;SDS011;10528;52.124;5.196;2023-12-14T07:21:45;9.23;;;6.55;;
20734;SDS011;10528;52.124;5.196;2023-12-14T07:24:12;9.55;;;6.50;;
20734;SDS011;10528;52.124;5.196;2023-12-14T07:26:39;9.35;;;5.85;;
20734;SDS011;10528;52.124;5.196;2023-12-14T07:29:06;8.00;;;5.95;;
20734;SDS011;10528;52.124;5.196;2023-12-14T07:31:33;10.05;;;6.80;;
20734;SDS011;10528;52.124;5.196;2023-12-14T07:34:00;8.98;;;6.13;;
20734;SDS011;10528;52.124;5.196;2023-12-14T07:36:28;10.05;;;6.28;;
20734;SDS011;10528;52.124;5.196;2023-12-14T07:38:55;8.70;;;5.93;;
20734;SDS011;10528;52.124;5.196;2023-12-14T07:41:22;8.02;;;5.50;;
20734;SDS011;10528;52.124;5.196;2023-12-14T07:43:55;8.23;;;5.13;;
20734;SDS011;10528;52.124;5.196;2023-12-14T07:46:23;8.43;;;5.82;;
20734;SDS011;10528;52.124;5.196;2023-12-14T07:48:50;6.78;;;5.15;;
20734;SDS011;10528;52.124;5.196;2023-12-14T07:51:17;8.07;;;5.00;;
20734;SDS011;10528;52.124;5.196;2023-12-14T07:53:44;8.10;;;5.20;;
20734;SDS011;10528;52.124;5.196;2023-12-14T07:56:13;8.57;;;5.55;;
20734;SDS011;10528;52.124;5.196;2023-12-14T07:58:41;6.95;;;5.20;;
20734;SDS011;10528;52.124;5.196;2023-12-14T08:01:08;7.38;;;5.07;;
20734;SDS011;10528;52.124;5.196;2023-12-14T08:03:35;6.88;;;5.38;;
20734;SDS011;10528;52.124;5.196;2023-12-14T08:06:02;7.50;;;5.30;;
20734;SDS011;10528;52.124;5.196;2023-12-14T08:08:29;8.23;;;5.60;;
20734;SDS011;10528;52.124;5.196;2023-12-14T08:10:56;8.23;;;5.63;;
20734;SDS011;10528;52.124;5.196;2023-12-14T08:13:23;8.30;;;6.40;;
20734;SDS011;10528;52.124;5.196;2023-12-14T08:15:50;8.25;;;6.60;;
20734;SDS011;10528;52.124;5.196;2023-12-14T08:18:17;9.38;;;6.72;;
20734;SDS011;10528;52.124;5.196;2023-12-14T08:20:43;10.38;;;7.03;;
20734;SDS011;10528;52.124;5.196;2023-12-14T08:23:10;9.48;;;5.78;;
20734;SDS011;10528;52.124;5.196;2023-12-14T08:25:37;6.70;;;5.53;;
20734;SDS011;10528;52.124;5.196;2023-12-14T08:28:04;8.00;;;5.03;;
20734;SDS011;10528;52.124;5.196;2023-12-14T08:30:31;7.10;;;5.45;;
20734;SDS011;10528;52.124;5.196;2023-12-14T08:32:58;9.38;;;5.20;;
20734;SDS011;10528;52.124;5.196;2023-12-14T08:35:25;6.97;;;5.25;;
20734;SDS011;10528;52.124;5.196;2023-12-14T08:37:52;6.60;;;4.85;;
20734;SDS011;10528;52.124;5.196;2023-12-14T08:40:19;8.50;;;5.50;;
20734;SDS011;10528;52.124;5.196;2023-12-14T08:42:47;6.90;;;5.20;;
20734;SDS011;10528;52.124;5.196;2023-12-14T08:45:14;8.02;;;5.60;;
20734;SDS011;10528;52.124;5.196;2023-12-14T08:47:41;8.00;;;5.07;;
20734;SDS011;10528;52.124;5.196;2023-12-14T08:50:09;7.13;;;5.47;;
20734;SDS011;10528;52.124;5.196;2023-12-14T08:52:36;7.57;;;5.45;;
20734;SDS011;10528;52.124;5.196;2023-12-14T08:55:04;6.82;;;5.03;;
20734;SDS011;10528;52.124;5.196;2023-12-14T08:57:32;9.65;;;5.63;;
20734;SDS011;10528;52.124;5.196;2023-12-14T08:59:59;7.95;;;5.30;;
20734;SDS011;10528;52.124;5.196;2023-12-14T09:02:26;8.02;;;5.25;;
20734;SDS011;10528;52.124;5.196;2023-12-14T09:04:53;6.53;;;5.47;;
20734;SDS011;10528;52.124;5.196;2023-12-14T09:07:20;7.05;;;5.03;;
20734;SDS011;10528;52.124;5.196;2023-12-14T09:09:47;7.10;;;5.00;;
20734;SDS011;10528;52.124;5.196;2023-12-14T09:12:14;7.45;;;4.00;;
20734;SDS011;10528;52.124;5.196;2023-12-14T09:14:41;5.70;;;4.45;;
20734;SDS011;10528;52.124;5.196;2023-12-14T09:17:08;6.40;;;4.50;;
20734;SDS011;10528;52.124;5.196;2023-12-14T09:19:35;6.50;;;4.68;;
20734;SDS011;10528;52.124;5.196;2023-12-14T09:22:02;6.70;;;4.47;;
20734;SDS011;10528;52.124;5.196;2023-12-14T09:24:29;6.82;;;5.03;;
20734;SDS011;10528;52.124;5.196;2023-12-14T09:26:56;5.65;;;3.92;;
20734;SDS011;10528;52.124;5.196;2023-12-14T09:29:23;4.95;;;4.20;;
20734;SDS011;10528;52.124;5.196;2023-12-14T09:31:51;5.50;;;3.63;;
20734;SDS011;10528;52.124;5.196;2023-12-14T09:34:18;6.55;;;4.07;;
20734;SDS011;10528;52.124;5.196;2023-12-14T09:36:45;7.20;;;3.80;;
20734;SDS011;10528;52.124;5.196;2023-12-14T09:39:12;6.13;;;3.70;;
20734;SDS011;10528;52.124;5.196;2023-12-14T09:41:40;5.03;;;3.38;;
20734;SDS011;10528;52.124;5.196;2023-12-14T09:44:07;5.78;;;3.45;;
20734;SDS011;10528;52.124;5.196;2023-12-14T09:46:35;6.60;;;4.13;;
20734;SDS011;10528;52.124;5.196;2023-12-14T09:49:05;5.43;;;3.75;;
20734;SDS011;10528;52.124;5.196;2023-12-14T09:51:34;6.65;;;3.85;;
20734;SDS011;10528;52.124;5.196;2023-12-14T09:54:02;6.00;;;3.22;;
20734;SDS011;10528;52.124;5.196;2023-12-14T09:56:29;4.60;;;3.28;;
20734;SDS011;10528;52.124;5.196;2023-12-14T09:58:57;6.20;;;3.42;;
20734;SDS011;10528;52.124;5.196;2023-12-14T10:01:25;5.53;;;3.30;;
20734;SDS011;10528;52.124;5.196;2023-12-14T10:04:06;5.95;;;3.53;;
20734;SDS011;10528;52.124;5.196;2023-12-14T10:06:33;5.65;;;3.40;;
20734;SDS011;10528;52.124;5.196;2023-12-14T10:09:00;4.97;;;3.58;;
20734;SDS011;10528;52.124;5.196;2023-12-14T10:11:27;5.18;;;3.60;;
20734;SDS011;10528;52.124;5.196;2023-12-14T10:13:54;4.43;;;3.60;;
20734;SDS011;10528;52.124;5.196;2023-12-14T10:16:31;6.80;;;3.88;;
20734;SDS011;10528;52.124;5.196;2023-12-14T10:18:59;7.40;;;3.50;;
20734;SDS011;10528;52.124;5.196;2023-12-14T10:21:27;5.50;;;3.45;;
20734;SDS011;10528;52.124;5.196;2023-12-14T10:23:55;6.65;;;4.10;;
20734;SDS011;10528;52.124;5.196;2023-12-14T10:26:23;6.65;;;3.67;;
20734;SDS011;10528;52.124;5.196;2023-12-14T10:28:52;6.95;;;3.50;;
20734;SDS011;10528;52.124;5.196;2023-12-14T10:31:21;6.68;;;4.03;;
20734;SDS011;10528;52.124;5.196;2023-12-14T10:33:50;4.50;;;3.40;;
20734;SDS011;10528;52.124;5.196;2023-12-14T10:36:18;8.80;;;4.07;;
20734;SDS011;10528;52.124;5.196;2023-12-14T10:38:53;4.30;;;3.17;;
20734;SDS011;10528;52.124;5.196;2023-12-14T10:41:24;6.00;;;3.47;;
20734;SDS011;10528;52.124;5.196;2023-12-14T10:43:53;5.60;;;3.30;;
20734;SDS011;10528;52.124;5.196;2023-12-14T10:46:42;4.60;;;3.10;;
20734;SDS011;10528;52.124;5.196;2023-12-14T10:49:14;5.75;;;3.55;;
20734;SDS011;10528;52.124;5.196;2023-12-14T10:51:42;5.88;;;3.35;;
20734;SDS011;10528;52.124;5.196;2023-12-14T10:54:13;6.47;;;3.42;;
20734;SDS011;10528;52.124;5.196;2023-12-14T10:56:42;8.30;;;3.80;;
20734;SDS011;10528;52.124;5.196;2023-12-14T10:59:09;7.43;;;3.63;;
20734;SDS011;10528;52.124;5.196;2023-12-14T11:01:36;4.85;;;3.47;;
20734;SDS011;10528;52.124;5.196;2023-12-14T11:04:06;5.55;;;3.83;;
20734;SDS011;10528;52.124;5.196;2023-12-14T11:06:39;7.25;;;3.95;;
20734;SDS011;10528;52.124;5.196;2023-12-14T11:09:09;7.65;;;3.50;;
20734;SDS011;10528;52.124;5.196;2023-12-14T11:14:20;5.97;;;3.47;;
20734;SDS011;10528;52.124;5.196;2023-12-14T11:16:50;5.78;;;3.55;;
20734;SDS011;10528;52.124;5.196;2023-12-14T11:21:49;5.25;;;3.55;;
20734;SDS011;10528;52.124;5.196;2023-12-14T11:24:42;5.10;;;3.55;;
20734;SDS011;10528;52.124;5.196;2023-12-14T11:27:17;5.43;;;3.45;;
20734;SDS011;10528;52.124;5.196;2023-12-14T11:29:52;6.30;;;3.65;;
20734;SDS011;10528;52.124;5.196;2023-12-14T11:32:20;4.70;;;3.60;;
20734;SDS011;10528;52.124;5.196;2023-12-14T11:34:47;4.88;;;3.45;;
20734;SDS011;10528;52.124;5.196;2023-12-14T11:37:14;5.70;;;3.30;;
20734;SDS011;10528;52.124;5.196;2023-12-14T11:39:41;4.88;;;3.40;;
20734;SDS011;10528;52.124;5.196;2023-12-14T11:42:10;5.38;;;4.28;;
20734;SDS011;10528;52.124;5.196;2023-12-14T11:44:37;5.57;;;3.70;;
20734;SDS011;10528;52.124;5.196;2023-12-14T11:47:07;8.27;;;4.15;;
20734;SDS011;10528;52.124;5.196;2023-12-14T11:49:35;6.32;;;3.60;;
20734;SDS011;10528;52.124;5.196;2023-12-14T11:52:03;6.03;;;3.35;;
20734;SDS011;10528;52.124;5.196;2023-12-14T11:54:31;6.53;;;3.90;;
20734;SDS011;10528;52.124;5.196;2023-12-14T11:57:00;8.68;;;4.47;;
20734;SDS011;10528;52.124;5.196;2023-12-14T11:59:29;4.78;;;3.75;;
20734;SDS011;10528;52.124;5.196;2023-12-14T12:01:59;6.07;;;3.70;;
20734;SDS011;10528;52.124;5.196;2023-12-14T12:04:28;6.10;;;4.25;;
20734;SDS011;10528;52.124;5.196;2023-12-14T12:07:01;8.13;;;3.67;;
20734;SDS011;10528;52.124;5.196;2023-12-14T12:09:34;6.65;;;3.80;;
20734;SDS011;10528;52.124;5.196;2023-12-14T12:12:08;6.30;;;4.18;;
20734;SDS011;10528;52.124;5.196;2023-12-14T12:14:36;7.47;;;5.07;;
20734;SDS011;10528;52.124;5.196;2023-12-14T12:17:08;7.55;;;4.75;;
20734;SDS011;10528;52.124;5.196;2023-12-14T12:19:36;6.95;;;4.25;;
20734;SDS011;10528;52.124;5.196;2023-12-14T12:22:04;6.43;;;4.53;;
20734;SDS011;10528;52.124;5.196;2023-12-14T12:24:31;6.30;;;4.43;;
20734;SDS011;10528;52.124;5.196;2023-12-14T12:27:00;6.82;;;4.72;;
20734;SDS011;10528;52.124;5.196;2023-12-14T12:29:27;6.47;;;4.57;;
20734;SDS011;10528;52.124;5.196;2023-12-14T12:31:54;8.25;;;4.32;;
20734;SDS011;10528;52.124;5.196;2023-12-14T12:34:22;7.72;;;4.57;;
20734;SDS011;10528;52.124;5.196;2023-12-14T12:36:49;7.18;;;3.90;;
20734;SDS011;10528;52.124;5.196;2023-12-14T12:39:16;12.20;;;6.30;;
20734;SDS011;10528;52.124;5.196;2023-12-14T12:41:43;9.63;;;6.20;;
20734;SDS011;10528;52.124;5.196;2023-12-14T12:44:10;7.53;;;4.80;;
20734;SDS011;10528;52.124;5.196;2023-12-14T12:46:37;8.18;;;4.20;;
20734;SDS011;10528;52.124;5.196;2023-12-14T12:49:05;6.95;;;4.47;;
20734;SDS011;10528;52.124;5.196;2023-12-14T12:51:32;6.38;;;4.15;;
20734;SDS011;10528;52.124;5.196;2023-12-14T12:53:59;6.28;;;4.28;;
20734;SDS011;10528;52.124;5.196;2023-12-14T12:56:38;6.20;;;4.00;;
20734;SDS011;10528;52.124;5.196;2023-12-14T12:59:05;6.80;;;4.40;;
20734;SDS011;10528;52.124;5.196;2023-12-14T13:01:35;12.55;;;9.20;;
20734;SDS011;10528;52.124;5.196;2023-12-14T13:04:03;8.30;;;5.07;;
20734;SDS011;10528;52.124;5.196;2023-12-14T13:06:31;7.63;;;4.40;;
20734;SDS011;10528;52.124;5.196;2023-12-14T13:08:58;8.40;;;4.45;;
20734;SDS011;10528;52.124;5.196;2023-12-14T13:11:25;8.30;;;4.43;;
20734;SDS011;10528;52.124;5.196;2023-12-14T13:13:52;7.20;;;5.10;;
20734;SDS011;10528;52.124;5.196;2023-12-14T13:16:19;6.82;;;5.13;;
20734;SDS011;10528;52.124;5.196;2023-12-14T13:18:46;7.15;;;4.72;;
20734;SDS011;10528;52.124;5.196;2023-12-14T13:21:13;7.45;;;5.10;;
20734;SDS011;10528;52.124;5.196;2023-12-14T13:23:40;11.38;;;7.78;;
20734;SDS011;10528;52.124;5.196;2023-12-14T13:26:07;10.07;;;6.70;;
20734;SDS011;10528;52.124;5.196;2023-12-14T13:28:34;10.25;;;6.20;;
20734;SDS011;10528;52.124;5.196;2023-12-14T13:31:02;10.70;;;6.50;;
20734;SDS011;10528;52.124;5.196;2023-12-14T13:33:29;10.73;;;6.90;;
20734;SDS011;10528;52.124;5.196;2023-12-14T13:35:57;10.20;;;6.45;;
20734;SDS011;10528;52.124;5.196;2023-12-14T13:38:24;8.85;;;6.82;;
20734;SDS011;10528;52.124;5.196;2023-12-14T13:40:51;11.50;;;7.22;;
20734;SDS011;10528;52.124;5.196;2023-12-14T13:43:18;10.05;;;6.88;;
20734;SDS011;10528;52.124;5.196;2023-12-14T13:45:45;10.73;;;7.50;;
20734;SDS011;10528;52.124;5.196;2023-12-14T13:48:23;11.98;;;8.05;;
20734;SDS011;10528;52.124;5.196;2023-12-14T13:50:52;10.93;;;7.63;;
20734;SDS011;10528;52.124;5.196;2023-12-14T13:53:23;12.80;;;8.50;;
20734;SDS011;10528;52.124;5.196;2023-12-14T13:55:50;11.93;;;7.90;;
20734;SDS011;10528;52.124;5.196;2023-12-14T13:58:17;12.43;;;7.90;;
20734;SDS011;10528;52.124;5.196;2023-12-14T14:00:44;9.20;;;6.90;;
20734;SDS011;10528;52.124;5.196;2023-12-14T14:03:11;11.68;;;7.57;;
20734;SDS011;10528;52.124;5.196;2023-12-14T14:05:39;13.57;;;7.80;;
20734;SDS011;10528;52.124;5.196;2023-12-14T14:08:06;12.35;;;7.72;;
20734;SDS011;10528;52.124;5.196;2023-12-14T14:10:42;12.23;;;8.57;;
20734;SDS011;10528;52.124;5.196;2023-12-14T14:13:09;13.93;;;7.65;;
20734;SDS011;10528;52.124;5.196;2023-12-14T14:15:36;11.98;;;7.65;;
20734;SDS011;10528;52.124;5.196;2023-12-14T14:18:03;13.10;;;7.68;;
20734;SDS011;10528;52.124;5.196;2023-12-14T14:20:30;10.55;;;7.53;;
20734;SDS011;10528;52.124;5.196;2023-12-14T14:22:57;12.32;;;8.02;;
20734;SDS011;10528;52.124;5.196;2023-12-14T14:25:26;10.48;;;7.68;;
20734;SDS011;10528;52.124;5.196;2023-12-14T14:27:53;9.85;;;6.90;;
20734;SDS011;10528;52.124;5.196;2023-12-14T14:30:20;9.43;;;6.90;;
20734;SDS011;10528;52.124;5.196;2023-12-14T14:32:47;11.00;;;7.60;;
20734;SDS011;10528;52.124;5.196;2023-12-14T14:35:14;11.80;;;6.50;;
20734;SDS011;10528;52.124;5.196;2023-12-14T14:37:41;8.45;;;6.63;;
20734;SDS011;10528;52.124;5.196;2023-12-14T14:40:12;11.95;;;7.05;;
20734;SDS011;10528;52.124;5.196;2023-12-14T14:42:40;11.07;;;6.85;;
20734;SDS011;10528;52.124;5.196;2023-12-14T14:45:08;9.38;;;6.88;;
20734;SDS011;10528;52.124;5.196;2023-12-14T14:47:37;8.90;;;6.85;;
20734;SDS011;10528;52.124;5.196;2023-12-14T14:50:06;9.85;;;6.47;;